Time,TemperatureF,DewpointF,PressureIn,WindDirection,WindDirectionDegrees,WindSpeedMPH,WindSpeedGustMPH,Humidity,HourlyPrecipIn,Conditions,Clouds,dailyrainin,SoftwareType,DateUTC
2013-02-14 00:00:00,30.1,28.6,29.56,NNE,14,1.0,10.0,94,0.02,,,0.08,VWS V15.00,2013-02-14 06:00:00,
2013-02-14 00:04:00,30.1,28.6,29.56,North,4,6.0,9.0,94,0.02,,-RA,0.00,VWS V14.01,2013-02-14 06:04:00,
2013-02-14 00:09:00,30.1,28.6,29.56,North,0,1.0,10.0,94,0.02,,-RA,0.00,VWS V14.01,2013-02-14 06:09:00,
2013-02-14 00:14:00,30.1,28.6,29.56,NNE,21,5.0,10.0,94,0.02,,-RA,0.00,VWS V14.01,2013-02-14 06:14:00,
2013-02-14 00:15:00,30.1,28.8,29.56,North,6,2.0,11.0,95,0.02,,,0.00,VWS V15.00,2013-02-14 06:15:00,
2013-02-14 00:19:00,30.1,28.6,29.56,NNE,16,10.0,14.0,94,0.01,,-RA,0.00,VWS V14.01,2013-02-14 06:19:00,
2013-02-14 00:24:00,30.0,28.5,29.56,NNE,23,6.0,14.0,94,0.01,,-RA,0.00,VWS V14.01,2013-02-14 06:24:00,
2013-02-14 00:29:00,30.0,28.5,29.56,NNE,21,9.0,14.0,94,0.02,,-RA,0.01,VWS V14.01,2013-02-14 06:29:00,
2013-02-14 00:30:00,30.0,28.5,29.57,North,11,5.0,14.0,94,0.02,,,0.01,VWS V15.00,2013-02-14 06:30:00,
2013-02-14 00:34:00,30.0,28.5,29.57,North,0,11.0,11.0,94,0.02,,-RA,0.01,VWS V14.01,2013-02-14 06:34:00,
2013-02-14 00:39:00,30.0,28.5,29.57,North,2,4.0,12.0,94,0.02,,-RA,0.01,VWS V14.01,2013-02-14 06:39:00,
2013-02-14 00:44:00,29.8,28.3,29.57,North,4,6.0,12.0,94,0.02,,-RA,0.01,VWS V14.01,2013-02-14 06:44:00,
2013-02-14 00:45:00,29.8,28.3,29.57,NNE,16,5.0,12.0,94,0.02,,,0.01,VWS V15.00,2013-02-14 06:45:00,
2013-02-14 00:49:00,29.7,28.2,29.57,NNW,348,3.0,16.0,94,0.01,,-RA,0.01,VWS V14.01,2013-02-14 06:49:00,
2013-02-14 00:54:00,29.5,28.0,29.57,North,7,6.0,16.0,94,0.01,,-RA,0.01,VWS V14.01,2013-02-14 06:54:00,
2013-02-14 00:59:00,29.3,27.8,29.57,North,8,6.0,16.0,94,0.01,,-RA,0.01,VWS V14.01,2013-02-14 06:59:00,
2013-02-14 01:00:00,29.3,27.8,29.58,North,4,6.0,16.0,94,0.01,,,0.01,VWS V15.00,2013-02-14 07:00:00,
2013-02-14 01:04:00,29.3,27.8,29.58,North,2,5.0,13.0,94,0.01,,OVC020,0.01,VWS V14.01,2013-02-14 07:04:00,
2013-02-14 01:09:00,29.1,27.6,29.58,NNE,23,13.0,13.0,94,0.01,,OVC020,0.01,VWS V14.01,2013-02-14 07:09:00,
2013-02-14 01:14:00,29.0,27.5,29.58,NNE,29,15.0,15.0,94,0.01,,OVC020,0.01,VWS V14.01,2013-02-14 07:14:00,
2013-02-14 01:15:00,29.0,27.5,29.58,NNE,18,7.0,15.0,94,0.01,,,0.01,VWS V15.00,2013-02-14 07:15:00,
2013-02-14 01:19:00,29.0,27.5,29.58,NE,35,12.0,16.0,94,0.01,,OVC020,0.01,VWS V14.01,2013-02-14 07:19:00,
2013-02-14 01:24:00,28.8,27.3,29.58,North,7,6.0,16.0,94,0.01,,OVC020,0.01,VWS V14.01,2013-02-14 07:24:00,
2013-02-14 01:29:00,28.8,27.3,29.58,NNE,16,12.0,16.0,94,0.01,,OVC020,0.01,VWS V14.01,2013-02-14 07:29:00,
2013-02-14 01:30:00,28.8,27.3,29.59,NNE,28,12.0,16.0,94,0.01,,,0.01,VWS V15.00,2013-02-14 07:30:00,
2013-02-14 01:34:00,28.7,27.2,29.59,NNE,13,11.0,12.0,94,0.00,,OVC040,0.01,VWS V14.01,2013-02-14 07:34:00,
2013-02-14 01:39:00,28.7,27.2,29.59,North,354,5.0,12.0,94,0.00,,OVC040,0.01,VWS V14.01,2013-02-14 07:39:00,
2013-02-14 01:44:00,28.5,27.0,29.59,North,11,5.0,12.0,94,0.00,,OVC040,0.01,VWS V14.01,2013-02-14 07:44:00,
2013-02-14 01:45:00,28.5,26.7,29.59,NNE,21,5.0,12.0,93,0.00,,,0.01,VWS V15.00,2013-02-14 07:45:00,
2013-02-14 01:49:00,28.5,26.7,29.59,North,10,10.0,13.0,93,0.00,,OVC040,0.01,VWS V14.01,2013-02-14 07:49:00,
2013-02-14 01:55:00,28.4,26.6,29.59,NNE,26,12.0,13.0,93,0.00,,OVC040,0.01,VWS V14.01,2013-02-14 07:55:00,
2013-02-14 02:00:00,28.4,26.6,29.59,North,5,1.0,13.0,93,0.00,,OVC040,0.01,VWS V14.01,2013-02-14 08:00:00,
2013-02-14 02:05:00,28.2,26.4,29.60,NE,37,5.0,11.0,93,0.00,,OVC080,0.01,VWS V14.01,2013-02-14 08:05:00,
2013-02-14 02:10:00,28.2,26.4,29.60,NNE,30,9.0,13.0,93,0.00,,OVC080,0.01,VWS V14.01,2013-02-14 08:10:00,
2013-02-14 02:15:00,28.2,26.4,29.60,NNE,14,4.0,13.0,93,0.00,,OVC080,0.01,VWS V14.01,2013-02-14 08:15:00,
2013-02-14 02:20:00,28.2,26.4,29.60,NNE,19,6.0,9.0,93,0.00,,OVC080,0.01,VWS V14.01,2013-02-14 08:20:00,
2013-02-14 02:25:00,28.1,26.1,29.60,NNE,19,4.0,9.0,92,0.00,,OVC080,0.01,VWS V14.01,2013-02-14 08:25:00,
2013-02-14 02:30:00,27.9,25.9,29.60,NNE,21,5.0,9.0,92,0.00,,OVC080,0.01,VWS V14.01,2013-02-14 08:30:00,
2013-02-14 02:35:00,27.8,25.8,29.60,NNE,17,4.0,6.0,92,0.00,,OVC100,0.01,VWS V14.01,2013-02-14 08:35:00,
2013-02-14 02:40:00,27.8,25.8,29.60,NNE,16,4.0,9.0,92,0.00,,OVC100,0.01,VWS V14.01,2013-02-14 08:40:00,
2013-02-14 02:45:00,27.6,25.6,29.60,NNE,16,5.0,9.0,92,0.00,,OVC100,0.01,VWS V14.01,2013-02-14 08:45:00,
2013-02-14 02:50:00,27.5,25.5,29.61,NNE,15,4.0,5.0,92,0.00,,OVC100,0.01,VWS V14.01,2013-02-14 08:50:00,
2013-02-14 02:55:00,27.5,25.5,29.61,NNE,13,4.0,5.0,92,0.00,,OVC100,0.01,VWS V14.01,2013-02-14 08:55:00,
2013-02-14 03:00:00,27.3,25.3,29.62,North,10,4.0,6.0,92,0.00,,OVC100,0.01,VWS V14.01,2013-02-14 09:00:00,
2013-02-14 03:05:00,27.3,25.3,29.62,North,354,4.0,8.0,92,0.00,,BKN100,0.01,VWS V14.01,2013-02-14 09:05:00,
2013-02-14 03:10:00,27.3,25.3,29.62,NNW,347,6.0,8.0,92,0.00,,BKN100,0.01,VWS V14.01,2013-02-14 09:10:00,
2013-02-14 03:15:00,27.3,25.3,29.63,NNW,336,3.0,9.0,92,0.00,,BKN100,0.01,VWS V14.01,2013-02-14 09:15:00,
2013-02-14 03:20:00,27.3,25.3,29.63,NNW,337,6.0,11.0,92,0.00,,BKN100,0.01,VWS V14.01,2013-02-14 09:20:00,
2013-02-14 03:25:00,27.3,25.3,29.63,NNW,338,2.0,11.0,92,0.00,,BKN100,0.01,VWS V14.01,2013-02-14 09:25:00,
2013-02-14 03:30:00,27.2,25.2,29.63,NNW,338,3.0,11.0,92,0.00,,BKN100,0.01,VWS V14.01,2013-02-14 09:30:00,
2013-02-14 03:35:00,27.2,25.2,29.63,NNW,336,4.0,6.0,92,0.00,,BKN100,0.01,VWS V14.01,2013-02-14 09:35:00,
2013-02-14 03:40:00,27.2,25.2,29.63,NNW,335,2.0,6.0,92,0.00,,OVC120,0.01,VWS V14.01,2013-02-14 09:40:00,
2013-02-14 03:45:00,27.0,25.0,29.63,NNW,334,5.0,9.0,92,0.00,,OVC120,0.01,VWS V14.01,2013-02-14 09:45:00,
2013-02-14 03:50:00,26.7,24.7,29.63,NNW,334,0.0,4.0,92,0.00,,OVC120,0.01,VWS V14.01,2013-02-14 09:50:00,
2013-02-14 03:55:00,26.4,24.4,29.63,NNW,334,0.0,4.0,92,0.00,,OVC120,0.01,VWS V14.01,2013-02-14 09:55:00,
2013-02-14 04:00:00,26.0,24.0,29.64,NNW,334,0.0,4.0,92,0.00,,,0.01,VWS V15.00,2013-02-14 10:00:00,
2013-02-14 04:01:00,26.0,24.0,29.64,NNW,334,0.0,4.0,92,0.00,,SCT110,0.01,VWS V14.01,2013-02-14 10:01:00,
2013-02-14 04:06:00,25.7,23.7,29.64,NNW,334,0.0,0.0,92,0.00,,SCT110,0.01,VWS V14.01,2013-02-14 10:06:00,
2013-02-14 04:11:00,25.3,23.3,29.64,NNW,333,5.0,5.0,92,0.00,,SCT110,0.01,VWS V14.01,2013-02-14 10:11:00,
2013-02-14 04:15:00,25.0,23.0,29.65,NNW,333,5.0,7.0,92,0.00,,,0.01,VWS V15.00,2013-02-14 10:15:00,
2013-02-14 04:16:00,25.0,23.0,29.65,NNW,333,7.0,7.0,92,0.00,,SCT110,0.01,VWS V14.01,2013-02-14 10:16:00,
2013-02-14 04:21:00,24.7,22.7,29.65,NNW,332,4.0,6.0,92,0.00,,SCT110,0.01,VWS V14.01,2013-02-14 10:21:00,
2013-02-14 04:26:00,24.4,22.4,29.65,NNW,331,4.0,9.0,92,0.00,,SCT110,0.01,VWS V14.01,2013-02-14 10:26:00,
2013-02-14 04:30:00,24.2,22.2,29.66,NNW,328,6.0,9.0,92,0.00,,,0.01,VWS V15.00,2013-02-14 10:30:00,
2013-02-14 04:31:00,24.2,22.2,29.66,NNW,328,5.0,9.0,92,0.00,,SCT110,0.01,VWS V14.01,2013-02-14 10:31:00,
2013-02-14 04:36:00,24.1,22.1,29.66,NW,326,3.0,8.0,92,0.00,,SCT110,0.01,VWS V14.01,2013-02-14 10:36:00,
2013-02-14 04:41:00,23.9,21.9,29.66,NW,326,0.0,8.0,92,0.00,,CLR,0.01,VWS V14.01,2013-02-14 10:41:00,
2013-02-14 04:45:00,23.9,21.9,29.67,NW,326,0.0,8.0,92,0.00,,,0.01,VWS V15.00,2013-02-14 10:45:00,
2013-02-14 04:46:00,23.9,21.9,29.67,NW,326,0.0,8.0,92,0.00,,CLR,0.01,VWS V14.01,2013-02-14 10:46:00,
2013-02-14 04:51:00,23.9,21.9,29.67,NW,325,3.0,6.0,92,0.00,,CLR,0.01,VWS V14.01,2013-02-14 10:51:00,
2013-02-14 04:56:00,23.6,21.6,29.67,NW,325,2.0,8.0,92,0.00,,CLR,0.01,VWS V14.01,2013-02-14 10:56:00,
2013-02-14 05:00:00,23.5,21.5,29.67,NW,324,3.0,8.0,92,0.00,,,0.01,VWS V15.00,2013-02-14 11:00:00,
2013-02-14 05:01:00,23.5,21.5,29.67,NW,324,3.0,8.0,92,0.00,,SCT060,0.01,VWS V14.01,2013-02-14 11:01:00,
2013-02-14 05:06:00,23.5,21.5,29.67,NW,324,3.0,6.0,92,0.00,,SCT060,0.01,VWS V14.01,2013-02-14 11:06:00,
2013-02-14 05:11:00,23.6,21.6,29.67,NW,325,4.0,7.0,92,0.00,,SCT060,0.01,VWS V14.01,2013-02-14 11:11:00,
2013-02-14 05:15:00,23.6,21.6,29.68,NW,324,3.0,7.0,92,0.00,,,0.01,VWS V15.00,2013-02-14 11:15:00,
2013-02-14 05:16:00,23.6,21.6,29.68,NW,324,3.0,7.0,92,0.00,,SCT060,0.01,VWS V14.01,2013-02-14 11:16:00,
2013-02-14 05:21:00,23.8,21.8,29.68,NW,324,0.0,5.0,92,0.00,,SCT060,0.01,VWS V14.01,2013-02-14 11:21:00,
2013-02-14 05:26:00,23.8,21.8,29.68,NW,324,0.0,5.0,92,0.00,,SCT060,0.01,VWS V14.01,2013-02-14 11:26:00,
2013-02-14 05:30:00,23.8,21.8,29.68,NW,324,6.0,6.0,92,0.00,,,0.01,VWS V15.00,2013-02-14 11:30:00,
2013-02-14 05:31:00,23.8,21.8,29.68,NW,324,0.0,6.0,92,0.00,,SCT060,0.01,VWS V14.01,2013-02-14 11:31:00,
2013-02-14 05:36:00,23.9,21.9,29.68,NW,324,0.0,6.0,92,0.00,,SCT060,0.01,VWS V14.01,2013-02-14 11:36:00,
2013-02-14 05:41:00,24.1,22.1,29.68,NW,324,3.0,6.0,92,0.00,,OVC060,0.01,VWS V14.01,2013-02-14 11:41:00,
2013-02-14 05:45:00,24.2,22.5,29.69,NW,324,0.0,6.0,93,0.00,,,0.01,VWS V15.00,2013-02-14 11:45:00,
2013-02-14 05:46:00,24.2,22.5,29.69,NW,324,0.0,0.0,93,0.00,,OVC060,0.01,VWS V14.01,2013-02-14 11:46:00,
2013-02-14 05:51:00,24.4,22.7,29.69,NW,324,0.0,4.0,93,0.00,,OVC060,0.01,VWS V14.01,2013-02-14 11:51:00,
2013-02-14 05:56:00,24.5,22.8,29.69,NW,324,0.0,4.0,93,0.00,,OVC060,0.01,VWS V14.01,2013-02-14 11:56:00,
2013-02-14 06:00:00,24.5,22.8,29.69,NW,324,0.0,4.0,93,0.00,,,0.01,VWS V15.00,2013-02-14 12:00:00,
2013-02-14 06:01:00,24.5,22.8,29.69,NW,324,0.0,0.0,93,0.00,,OVC060,0.01,VWS V14.01,2013-02-14 12:01:00,
2013-02-14 06:07:00,24.5,22.5,29.69,NW,324,0.0,0.0,92,0.00,,OVC060,0.01,VWS V14.01,2013-02-14 12:07:00,
2013-02-14 06:12:00,24.5,22.5,29.69,NW,324,0.0,0.0,92,0.00,,OVC060,0.01,VWS V14.01,2013-02-14 12:12:00,
2013-02-14 06:15:00,24.5,22.5,29.70,NW,324,0.0,0.0,92,0.00,,,0.01,VWS V15.00,2013-02-14 12:15:00,
2013-02-14 06:17:00,24.5,22.5,29.70,NW,324,0.0,0.0,92,0.00,,OVC060,0.01,VWS V14.01,2013-02-14 12:17:00,
2013-02-14 06:22:00,24.5,22.5,29.70,NW,324,0.0,0.0,92,0.00,,OVC060,0.01,VWS V14.01,2013-02-14 12:22:00,
2013-02-14 06:27:00,24.5,22.5,29.70,NW,324,0.0,0.0,92,0.00,,OVC060,0.01,VWS V14.01,2013-02-14 12:27:00,
2013-02-14 06:30:00,24.4,22.4,29.70,NW,324,0.0,0.0,92,0.00,,,0.01,VWS V15.00,2013-02-14 12:30:00,
2013-02-14 06:32:00,24.4,22.4,29.70,NW,324,0.0,0.0,92,0.00,,OVC060,0.01,VWS V14.01,2013-02-14 12:32:00,
2013-02-14 06:37:00,24.4,22.4,29.70,NW,324,0.0,0.0,92,0.00,,OVC060,0.01,VWS V14.01,2013-02-14 12:37:00,
2013-02-14 06:42:00,24.2,22.2,29.70,NW,324,0.0,0.0,92,0.00,,OVC060,0.01,VWS V14.01,2013-02-14 12:42:00,
2013-02-14 06:45:00,24.1,22.1,29.71,NW,324,0.0,0.0,92,0.00,,,0.01,VWS V15.00,2013-02-14 12:45:00,
2013-02-14 06:48:00,23.9,21.9,29.71,NW,324,0.0,0.0,92,0.00,,OVC060,0.01,VWS V14.01,2013-02-14 12:48:00,
2013-02-14 06:53:00,23.6,21.6,29.71,NW,324,0.0,0.0,92,0.00,,OVC060,0.01,VWS V14.01,2013-02-14 12:53:00,
2013-02-14 06:58:00,23.5,21.5,29.71,NW,324,0.0,0.0,92,0.00,,OVC060,0.01,VWS V14.01,2013-02-14 12:58:00,
2013-02-14 07:00:00,23.5,21.5,29.72,NW,324,0.0,0.0,92,0.00,,,0.01,VWS V15.00,2013-02-14 13:00:00,
2013-02-14 07:03:00,23.5,21.5,29.72,NW,324,0.0,0.0,92,0.00,,BKN085,0.01,VWS V14.01,2013-02-14 13:03:00,
2013-02-14 07:08:00,23.3,21.3,29.72,NW,324,0.0,0.0,92,0.00,,BKN085,0.01,VWS V14.01,2013-02-14 13:08:00,
2013-02-14 07:13:00,23.0,20.8,29.72,NW,324,0.0,0.0,91,0.00,,BKN085,0.01,VWS V14.01,2013-02-14 13:13:00,
2013-02-14 07:15:00,22.7,20.5,29.73,NW,324,0.0,0.0,91,0.00,,,0.01,VWS V15.00,2013-02-14 13:15:00,
2013-02-14 07:18:00,22.7,20.5,29.73,NW,324,0.0,0.0,91,0.00,,BKN085,0.01,VWS V14.01,2013-02-14 13:18:00,
2013-02-14 07:23:00,22.5,20.3,29.73,NW,324,0.0,0.0,91,0.00,,BKN085,0.01,VWS V14.01,2013-02-14 13:23:00,
2013-02-14 07:28:00,22.9,20.9,29.73,NW,324,0.0,0.0,92,0.00,,BKN085,0.01,VWS V14.01,2013-02-14 13:28:00,
2013-02-14 07:30:00,22.7,20.7,29.74,NW,324,0.0,0.0,92,0.00,,,0.01,VWS V15.00,2013-02-14 13:30:00,
2013-02-14 07:33:00,22.7,20.7,29.74,NW,324,0.0,0.0,92,0.00,,BKN085,0.01,VWS V14.01,2013-02-14 13:33:00,
2013-02-14 07:38:00,22.9,20.9,29.74,NW,324,0.0,0.0,92,0.00,,BKN085,0.01,VWS V14.01,2013-02-14 13:38:00,
2013-02-14 07:43:00,23.2,21.2,29.74,NW,324,0.0,0.0,92,0.00,,OVC041,0.01,VWS V14.01,2013-02-14 13:43:00,
2013-02-14 07:45:00,23.3,21.3,29.74,NW,324,0.0,0.0,92,0.00,,,0.01,VWS V15.00,2013-02-14 13:45:00,
2013-02-14 07:48:00,23.5,21.5,29.74,NW,324,0.0,0.0,92,0.00,,OVC041,0.01,VWS V14.01,2013-02-14 13:48:00,
2013-02-14 07:53:00,23.8,21.8,29.74,NW,324,0.0,0.0,92,0.00,,OVC041,0.01,VWS V14.01,2013-02-14 13:53:00,
2013-02-14 07:58:00,23.9,21.9,29.74,NW,324,0.0,0.0,92,0.00,,OVC041,0.01,VWS V14.01,2013-02-14 13:58:00,
2013-02-14 08:00:00,23.8,21.8,29.75,NW,324,0.0,0.0,92,0.00,,,0.01,VWS V15.00,2013-02-14 14:00:00,
2013-02-14 08:03:00,23.6,21.4,29.75,NW,324,0.0,0.0,91,0.00,,OVC043,0.01,VWS V14.01,2013-02-14 14:03:00,
2013-02-14 08:08:00,23.5,21.3,29.75,NW,324,0.0,0.0,91,0.00,,OVC043,0.01,VWS V14.01,2013-02-14 14:08:00,
2013-02-14 08:13:00,23.9,21.9,29.75,NW,324,0.0,0.0,92,0.00,,OVC043,0.01,VWS V14.01,2013-02-14 14:13:00,
2013-02-14 08:15:00,24.2,22.2,29.75,NW,324,0.0,0.0,92,0.00,,,0.01,VWS V15.00,2013-02-14 14:15:00,
2013-02-14 08:18:00,24.4,22.4,29.75,NW,324,0.0,0.0,92,0.00,,OVC043,0.01,VWS V14.01,2013-02-14 14:18:00,
2013-02-14 08:23:00,24.8,22.8,29.75,NW,324,0.0,0.0,92,0.00,,OVC043,0.01,VWS V14.01,2013-02-14 14:23:00,
2013-02-14 08:28:00,25.0,23.0,29.75,NW,324,0.0,0.0,92,0.00,,OVC043,0.01,VWS V14.01,2013-02-14 14:28:00,
2013-02-14 08:30:00,25.1,22.9,29.76,NW,324,4.0,5.0,91,0.00,,,0.01,VWS V15.00,2013-02-14 14:30:00,
2013-02-14 08:33:00,25.1,22.9,29.76,NW,324,3.0,4.0,91,0.00,,OVC041,0.01,VWS V14.01,2013-02-14 14:33:00,
2013-02-14 08:38:00,25.4,23.1,29.76,NW,324,5.0,5.0,91,0.00,,OVC041,0.01,VWS V14.01,2013-02-14 14:38:00,
2013-02-14 08:43:00,25.6,23.3,29.76,NW,324,0.0,6.0,91,0.00,,OVC041,0.01,VWS V14.01,2013-02-14 14:43:00,
2013-02-14 08:45:00,25.7,23.4,29.76,NW,324,0.0,6.0,91,0.00,,,0.01,VWS V15.00,2013-02-14 14:45:00,
2013-02-14 08:48:00,25.8,23.5,29.76,NW,324,4.0,5.0,91,0.00,,OVC041,0.01,VWS V14.01,2013-02-14 14:48:00,
2013-02-14 08:54:00,26.0,23.7,29.76,NW,322,5.0,9.0,91,0.00,,OVC041,0.01,VWS V14.01,2013-02-14 14:54:00,
2013-02-14 08:59:00,26.1,23.8,29.76,NW,322,0.0,9.0,91,0.00,,OVC041,0.01,VWS V14.01,2013-02-14 14:59:00,
2013-02-14 09:00:00,26.3,23.8,29.76,NW,322,4.0,9.0,90,0.00,,,0.01,VWS V15.00,2013-02-14 15:00:00,
2013-02-14 09:04:00,26.3,23.8,29.76,NW,322,0.0,10.0,90,0.00,,OVC039,0.01,VWS V14.01,2013-02-14 15:04:00,
2013-02-14 09:09:00,26.6,24.1,29.76,NW,321,5.0,10.0,90,0.00,,OVC039,0.01,VWS V14.01,2013-02-14 15:09:00,
2013-02-14 09:14:00,27.0,24.5,29.76,NW,319,2.0,10.0,90,0.00,,OVC039,0.01,VWS V14.01,2013-02-14 15:14:00,
2013-02-14 09:15:00,27.3,24.8,29.77,NW,320,4.0,10.0,90,0.00,,,0.01,VWS V15.00,2013-02-14 15:15:00,
2013-02-14 09:19:00,27.3,24.5,29.77,NW,321,4.0,9.0,89,0.00,,OVC039,0.01,VWS V14.01,2013-02-14 15:19:00,
2013-02-14 09:24:00,27.6,24.8,29.77,NW,322,9.0,9.0,89,0.00,,OVC039,0.01,VWS V14.01,2013-02-14 15:24:00,
2013-02-14 09:29:00,27.6,24.8,29.77,NNW,328,2.0,10.0,89,0.00,,OVC039,0.01,VWS V14.01,2013-02-14 15:29:00,
2013-02-14 09:30:00,27.8,25.0,29.78,NW,325,3.0,10.0,89,0.00,,,0.01,VWS V15.00,2013-02-14 15:30:00,
2013-02-14 09:34:00,27.9,24.8,29.78,NW,319,4.0,8.0,88,0.00,,OVC045,0.01,VWS V14.01,2013-02-14 15:34:00,
2013-02-14 09:39:00,28.1,25.0,29.78,NW,319,5.0,9.0,88,0.00,,OVC045,0.01,VWS V14.01,2013-02-14 15:39:00,
2013-02-14 09:44:00,28.4,25.3,29.78,NNW,329,2.0,9.0,88,0.00,,OVC045,0.01,VWS V14.01,2013-02-14 15:44:00,
2013-02-14 09:45:00,28.5,25.1,29.78,NNW,330,8.0,9.0,87,0.00,,,0.01,VWS V15.00,2013-02-14 15:45:00,
2013-02-14 09:49:00,28.5,25.1,29.78,NW,326,10.0,11.0,87,0.00,,OVC045,0.01,VWS V14.01,2013-02-14 15:49:00,
2013-02-14 09:54:00,28.7,25.0,29.78,NNW,336,12.0,14.0,86,0.00,,OVC045,0.01,VWS V14.01,2013-02-14 15:54:00,
2013-02-14 09:59:00,28.4,24.8,29.78,NNW,342,11.0,17.0,86,0.00,,OVC045,0.01,VWS V14.01,2013-02-14 15:59:00,
2013-02-14 10:00:00,28.4,24.8,29.78,North,352,9.0,17.0,86,0.00,,,0.01,VWS V15.00,2013-02-14 16:00:00,
2013-02-14 10:04:00,28.4,24.8,29.78,NNW,338,14.0,15.0,86,0.00,,OVC045,0.01,VWS V14.01,2013-02-14 16:04:00,
2013-02-14 10:09:00,28.2,24.3,29.78,NNW,333,5.0,15.0,85,0.00,,OVC045,0.01,VWS V14.01,2013-02-14 16:09:00,
2013-02-14 10:14:00,28.1,24.2,29.78,NNW,336,11.0,16.0,85,0.00,,OVC045,0.01,VWS V14.01,2013-02-14 16:14:00,
2013-02-14 10:15:00,28.1,24.2,29.79,North,349,8.0,16.0,85,0.00,,,0.01,VWS V15.00,2013-02-14 16:15:00,
2013-02-14 10:19:00,27.9,24.0,29.79,NNW,337,17.0,17.0,85,0.00,,OVC045,0.01,VWS V14.01,2013-02-14 16:19:00,
2013-02-14 10:24:00,28.2,24.3,29.79,NNW,331,5.0,17.0,85,0.00,,OVC045,0.01,VWS V14.01,2013-02-14 16:24:00,
2013-02-14 10:29:00,28.4,24.5,29.79,NNW,347,10.0,17.0,85,0.00,,OVC045,0.01,VWS V14.01,2013-02-14 16:29:00,
2013-02-14 10:30:00,28.4,24.5,29.80,NW,316,11.0,17.0,85,0.00,,,0.01,VWS V15.00,2013-02-14 16:30:00,
2013-02-14 10:34:00,28.4,24.2,29.80,NW,326,12.0,12.0,84,0.00,,OVC012,0.01,VWS V14.01,2013-02-14 16:34:00,
2013-02-14 10:39:00,28.4,24.2,29.80,NNW,336,9.0,15.0,84,0.00,,OVC012,0.01,VWS V14.01,2013-02-14 16:39:00,
2013-02-14 10:44:00,28.5,24.0,29.80,NNW,336,8.0,15.0,83,0.00,,OVC012,0.01,VWS V14.01,2013-02-14 16:44:00,
2013-02-14 10:45:00,28.5,24.0,29.80,NNW,347,6.0,15.0,83,0.00,,,0.01,VWS V15.00,2013-02-14 16:45:00,
2013-02-14 10:49:00,28.5,23.7,29.80,NNW,339,12.0,14.0,82,0.00,,OVC012,0.01,VWS V14.01,2013-02-14 16:49:00,
2013-02-14 10:54:00,28.5,23.7,29.80,NNW,331,3.0,14.0,82,0.00,,OVC012,0.01,VWS V14.01,2013-02-14 16:54:00,
2013-02-14 10:59:00,28.7,23.9,29.80,NW,324,12.0,14.0,82,0.00,,OVC012,0.01,VWS V14.01,2013-02-14 16:59:00,
2013-02-14 11:00:00,28.8,24.0,29.81,NNW,335,5.0,14.0,82,0.00,,,0.01,VWS V15.00,2013-02-14 17:00:00,
2013-02-14 11:04:00,29.0,24.2,29.81,NW,317,11.0,14.0,82,0.00,,OVC012,0.01,VWS V14.01,2013-02-14 17:04:00,
2013-02-14 11:09:00,28.8,23.4,29.81,NW,316,6.0,18.0,80,0.00,,OVC012,0.01,VWS V14.01,2013-02-14 17:09:00,
2013-02-14 11:14:00,28.8,23.4,29.81,NW,323,8.0,18.0,80,0.00,,OVC012,0.01,VWS V14.01,2013-02-14 17:14:00,
2013-02-14 11:15:00,28.8,23.4,29.81,NW,306,7.0,18.0,80,0.00,,,0.01,VWS V15.00,2013-02-14 17:15:00,
2013-02-14 11:19:00,29.0,23.6,29.81,WNW,301,3.0,14.0,80,0.00,,OVC012,0.01,VWS V14.01,2013-02-14 17:19:00,
2013-02-14 11:25:00,29.0,23.3,29.81,NW,319,4.0,14.0,79,0.00,,OVC012,0.01,VWS V14.01,2013-02-14 17:25:00,
2013-02-14 11:30:00,29.0,23.0,29.81,NNW,340,9.0,14.0,78,0.00,,OVC012,0.01,VWS V14.01,2013-02-14 17:30:00,
2013-02-14 11:35:00,29.0,23.3,29.82,NNW,348,6.0,11.0,79,0.00,,OVC012,0.01,VWS V14.01,2013-02-14 17:35:00,
2013-02-14 11:40:00,29.0,23.0,29.82,NNW,348,9.0,12.0,78,0.00,,OVC012,0.01,VWS V14.01,2013-02-14 17:40:00,
2013-02-14 11:45:00,28.8,22.5,29.82,North,359,6.0,12.0,77,0.00,,OVC012,0.01,VWS V14.01,2013-02-14 17:45:00,
2013-02-14 11:50:00,29.0,23.0,29.82,NW,318,13.0,13.0,78,0.00,,OVC012,0.01,VWS V14.01,2013-02-14 17:50:00,
2013-02-14 11:55:00,29.0,23.0,29.82,NW,313,4.0,16.0,78,0.00,,OVC012,0.01,VWS V14.01,2013-02-14 17:55:00,
2013-02-14 12:00:00,29.0,22.7,29.82,NNW,333,5.0,16.0,77,0.00,,OVC012,0.01,VWS V14.01,2013-02-14 18:00:00,
2013-02-14 12:05:00,29.0,22.7,29.83,NW,314,10.0,12.0,77,0.00,,OVC012,0.01,VWS V14.01,2013-02-14 18:05:00,
2013-02-14 12:10:00,28.8,22.2,29.83,NW,316,4.0,12.0,76,0.00,,OVC012,0.01,VWS V14.01,2013-02-14 18:10:00,
2013-02-14 12:15:00,29.0,23.0,29.83,WNW,301,7.0,15.0,78,0.00,,OVC012,0.01,VWS V14.01,2013-02-14 18:15:00,
2013-02-14 12:20:00,29.4,22.1,29.83,WNW,299,10.0,15.0,74,0.00,,OVC012,0.01,VWS V14.01,2013-02-14 18:20:00,
2013-02-14 12:25:00,29.5,21.9,29.83,NW,311,1.0,15.0,73,0.00,,OVC012,0.01,VWS V14.01,2013-02-14 18:25:00,
2013-02-14 12:30:00,29.7,21.8,29.83,North,352,1.0,15.0,72,0.00,,OVC012,0.01,VWS V14.01,2013-02-14 18:30:00,
2013-02-14 12:35:00,29.8,21.6,29.83,NNW,336,8.0,9.0,71,0.00,,CLR,0.01,VWS V14.01,2013-02-14 18:35:00,
2013-02-14 12:40:00,29.8,21.2,29.83,NW,315,11.0,13.0,70,0.00,,CLR,0.01,VWS V14.01,2013-02-14 18:40:00,
2013-02-14 12:45:00,30.1,21.2,29.83,NW,326,9.0,13.0,69,0.00,,CLR,0.01,VWS V14.01,2013-02-14 18:45:00,
2013-02-14 12:50:00,30.1,20.5,29.83,NW,318,13.0,17.0,67,0.00,,CLR,0.01,VWS V14.01,2013-02-14 18:50:00,
2013-02-14 12:55:00,30.3,20.7,29.83,NNW,331,5.0,17.0,67,0.00,,CLR,0.01,VWS V14.01,2013-02-14 18:55:00,
2013-02-14 13:00:00,30.0,19.0,29.83,NNW,347,8.0,17.0,63,0.00,,CLR,0.01,VWS V14.01,2013-02-14 19:00:00,
2013-02-14 13:05:00,30.3,20.0,29.83,NNW,333,7.0,11.0,65,0.00,,CLR,0.01,VWS V14.01,2013-02-14 19:05:00,
2013-02-14 13:10:00,30.7,20.7,29.83,NW,308,7.0,11.0,66,0.00,,CLR,0.01,VWS V14.01,2013-02-14 19:10:00,
2013-02-14 13:15:00,31.2,20.8,29.83,NW,316,5.0,12.0,65,0.00,,CLR,0.01,VWS V14.01,2013-02-14 19:15:00,
2013-02-14 13:20:00,32.4,22.0,29.83,WNW,300,9.0,11.0,65,0.00,,CLR,0.01,VWS V14.01,2013-02-14 19:20:00,
2013-02-14 13:25:00,32.4,20.9,29.83,NW,311,9.0,16.0,62,0.00,,CLR,0.01,VWS V14.01,2013-02-14 19:25:00,
2013-02-14 13:30:00,31.8,21.4,29.83,NW,315,12.0,16.0,65,0.00,,CLR,0.01,VWS V14.01,2013-02-14 19:30:00,
2013-02-14 13:35:00,32.2,20.7,29.83,NW,310,2.0,18.0,62,0.00,,SCT035,0.01,VWS V14.01,2013-02-14 19:35:00,
2013-02-14 13:41:00,32.4,19.7,29.83,NW,321,20.0,20.0,59,0.00,,SCT035,0.01,VWS V14.01,2013-02-14 19:41:00,
2013-02-14 13:45:00,31.5,19.2,29.84,NNW,346,16.0,20.0,60,0.00,,,0.01,VWS V15.00,2013-02-14 19:45:00,
2013-02-14 13:46:00,31.5,18.8,29.84,North,352,6.0,20.0,59,0.00,,SCT035,0.01,VWS V14.01,2013-02-14 19:46:00,
2013-02-14 13:51:00,30.7,19.2,29.84,NW,324,10.0,17.0,62,0.00,,SCT035,0.01,VWS V14.01,2013-02-14 19:51:00,
2013-02-14 13:56:00,30.1,17.9,29.84,NW,310,1.0,19.0,60,0.00,,SCT035,0.01,VWS V14.01,2013-02-14 19:56:00,
2013-02-14 14:00:00,29.4,17.6,29.84,NNW,337,13.0,23.0,61,0.00,,,0.01,VWS V15.00,2013-02-14 20:00:00,
2013-02-14 14:01:00,29.4,17.6,29.84,North,2,12.0,23.0,61,0.00,,SCT035,0.01,VWS V14.01,2013-02-14 20:01:00,
2013-02-14 14:06:00,29.4,17.2,29.84,North,352,11.0,16.0,60,0.00,,SCT035,0.01,VWS V14.01,2013-02-14 20:06:00,
2013-02-14 14:11:00,29.8,16.8,29.84,North,354,11.0,20.0,58,0.00,,SCT035,0.01,VWS V14.01,2013-02-14 20:11:00,
2013-02-14 14:15:00,29.8,16.4,29.86,NNW,331,9.0,20.0,57,0.00,,,0.01,VWS V15.00,2013-02-14 20:15:00,
2013-02-14 14:16:00,29.8,16.4,29.86,NNW,343,9.0,20.0,57,0.00,,SCT035,0.01,VWS V14.01,2013-02-14 20:16:00,
2013-02-14 14:21:00,29.5,15.8,29.86,NNW,345,12.0,20.0,56,0.00,,SCT035,0.01,VWS V14.01,2013-02-14 20:21:00,
2013-02-14 14:26:00,29.4,15.2,29.86,NW,326,12.0,22.0,55,0.00,,SCT035,0.01,VWS V14.01,2013-02-14 20:26:00,
2013-02-14 14:30:00,29.1,13.2,29.86,NNW,339,5.0,22.0,51,0.00,,,0.01,VWS V15.00,2013-02-14 20:30:00,
2013-02-14 14:31:00,29.1,13.7,29.86,NNW,329,14.0,22.0,52,0.00,,SCT035,0.01,VWS V14.01,2013-02-14 20:31:00,
2013-02-14 14:36:00,29.0,13.1,29.86,NNW,330,18.0,19.0,51,0.00,,CLR,0.01,VWS V14.01,2013-02-14 20:36:00,
2013-02-14 14:41:00,28.5,11.8,29.86,North,350,10.0,27.0,49,0.00,,CLR,0.01,VWS V14.01,2013-02-14 20:41:00,
2013-02-14 14:45:00,28.2,11.0,29.88,NNW,344,13.0,27.0,48,0.00,,,0.01,VWS V15.00,2013-02-14 20:45:00,
2013-02-14 14:46:00,28.2,11.0,29.88,NNW,344,13.0,27.0,48,0.00,,CLR,0.01,VWS V14.01,2013-02-14 20:46:00,
2013-02-14 14:51:00,28.2,11.0,29.88,North,5,6.0,19.0,48,0.00,,CLR,0.01,VWS V14.01,2013-02-14 20:51:00,
2013-02-14 14:56:00,28.5,12.2,29.88,NW,324,20.0,22.0,50,0.00,,CLR,0.01,VWS V14.01,2013-02-14 20:56:00,
2013-02-14 15:00:00,28.2,10.1,29.89,NNW,337,10.0,22.0,46,0.00,,,0.01,VWS V15.00,2013-02-14 21:00:00,
2013-02-14 15:01:00,28.2,10.1,29.89,NNW,337,10.0,22.0,46,0.00,,CLR,0.01,VWS V14.01,2013-02-14 21:01:00,
2013-02-14 15:06:00,27.8,9.2,29.89,NNW,328,16.0,21.0,45,0.00,,CLR,0.01,VWS V14.01,2013-02-14 21:06:00,
2013-02-14 15:11:00,27.5,9.0,29.89,NNW,338,13.0,21.0,45,0.00,,CLR,0.01,VWS V14.01,2013-02-14 21:11:00,
2013-02-14 15:15:00,27.2,8.2,29.90,North,351,8.0,23.0,44,0.00,,,0.01,VWS V15.00,2013-02-14 21:15:00,
2013-02-14 15:16:00,27.2,8.2,29.90,NNW,338,11.0,11.0,44,0.00,,CLR,0.01,VWS V14.01,2013-02-14 21:16:00,
2013-02-14 15:21:00,27.0,9.0,29.90,NNW,345,19.0,21.0,46,0.00,,CLR,0.01,VWS V14.01,2013-02-14 21:21:00,
2013-02-14 15:26:00,26.7,8.2,29.90,NW,323,12.0,23.0,45,0.00,,CLR,0.01,VWS V14.01,2013-02-14 21:26:00,
2013-02-14 15:30:00,26.3,6.9,29.92,North,352,20.0,23.0,43,0.00,,,0.01,VWS V15.00,2013-02-14 21:30:00,
2013-02-14 15:31:00,26.3,6.9,29.92,NNW,342,13.0,20.0,43,0.00,,CLR,0.01,VWS V14.01,2013-02-14 21:31:00,
2013-02-14 15:36:00,26.0,6.6,29.92,NNW,341,11.0,23.0,43,0.00,,CLR,0.01,VWS V14.01,2013-02-14 21:36:00,
2013-02-14 15:41:00,25.8,3.1,29.92,North,354,14.0,23.0,37,0.00,,CLR,0.01,VWS V14.01,2013-02-14 21:41:00,
2013-02-14 15:45:00,25.8,4.8,29.93,North,7,7.0,23.0,40,0.00,,,0.01,VWS V15.00,2013-02-14 21:45:00,
2013-02-14 15:46:00,25.8,5.4,29.93,North,1,10.0,14.0,41,0.00,,CLR,0.01,VWS V14.01,2013-02-14 21:46:00,
2013-02-14 15:51:00,25.4,3.9,29.93,NW,322,14.0,20.0,39,0.00,,CLR,0.01,VWS V14.01,2013-02-14 21:51:00,
2013-02-14 15:56:00,25.3,6.4,29.93,NNW,338,21.0,21.0,44,0.00,,CLR,0.01,VWS V14.01,2013-02-14 21:56:00,
2013-02-14 16:00:00,25.1,3.1,29.94,NNW,345,10.0,21.0,38,0.00,,,0.01,VWS V15.00,2013-02-14 22:00:00,
2013-02-14 16:01:00,25.1,3.1,29.94,North,6,14.0,14.0,38,0.00,,CLR,0.01,VWS V14.01,2013-02-14 22:01:00,
2013-02-14 16:06:00,25.1,3.1,29.94,NNE,14,7.0,20.0,38,0.00,,CLR,0.01,VWS V14.01,2013-02-14 22:06:00,
2013-02-14 16:11:00,25.0,2.4,29.94,NNW,343,9.0,21.0,37,0.00,,CLR,0.01,VWS V14.01,2013-02-14 22:11:00,
2013-02-14 16:15:00,25.0,3.5,29.95,NNW,333,13.0,24.0,39,0.00,,,0.01,VWS V15.00,2013-02-14 22:15:00,
2013-02-14 16:17:00,25.0,3.5,29.95,North,349,14.0,14.0,39,0.00,,CLR,0.01,VWS V14.01,2013-02-14 22:17:00,
2013-02-14 16:22:00,24.7,2.7,29.95,NNW,333,16.0,21.0,38,0.00,,CLR,0.01,VWS V14.01,2013-02-14 22:22:00,
2013-02-14 16:27:00,24.7,3.3,29.95,NNW,342,14.0,21.0,39,0.00,,CLR,0.01,VWS V14.01,2013-02-14 22:27:00,
2013-02-14 16:30:00,24.5,3.7,29.96,NW,325,6.0,21.0,40,0.00,,,0.01,VWS V15.00,2013-02-14 22:30:00,
2013-02-14 16:32:00,24.5,3.7,29.96,NW,320,6.0,9.0,40,0.00,,CLR,0.01,VWS V14.01,2013-02-14 22:32:00,
2013-02-14 16:37:00,24.1,3.8,29.96,NNW,339,11.0,15.0,41,0.00,,CLR,0.01,VWS V14.01,2013-02-14 22:37:00,
2013-02-14 16:42:00,23.9,3.1,29.96,North,350,1.0,15.0,40,0.00,,CLR,0.01,VWS V14.01,2013-02-14 22:42:00,
2013-02-14 16:45:00,23.8,5.1,29.97,North,1,5.0,15.0,44,0.00,,,0.01,VWS V15.00,2013-02-14 22:45:00,
2013-02-14 16:47:00,23.8,5.1,29.97,North,1,8.0,12.0,44,0.00,,CLR,0.01,VWS V14.01,2013-02-14 22:47:00,
2013-02-14 16:52:00,23.6,2.8,29.97,North,355,6.0,15.0,40,0.00,,CLR,0.01,VWS V14.01,2013-02-14 22:52:00,
2013-02-14 16:57:00,23.6,2.8,29.97,North,352,7.0,17.0,40,0.00,,CLR,0.01,VWS V14.01,2013-02-14 22:57:00,
2013-02-14 17:00:00,23.3,2.6,29.98,NNE,14,2.0,17.0,40,0.00,,,0.01,VWS V15.00,2013-02-14 23:00:00,
2013-02-14 17:02:00,23.3,3.1,29.98,North,351,6.0,7.0,41,0.00,,CLR,0.01,VWS V14.01,2013-02-14 23:02:00,
2013-02-14 17:07:00,23.3,2.0,29.98,North,355,5.0,17.0,39,0.00,,CLR,0.01,VWS V14.01,2013-02-14 23:07:00,
2013-02-14 17:12:00,23.3,3.1,29.98,NNW,340,6.0,17.0,41,0.00,,CLR,0.01,VWS V14.01,2013-02-14 23:12:00,
2013-02-14 17:15:00,23.0,3.8,29.99,NNW,340,6.0,17.0,43,0.00,,,0.01,VWS V15.00,2013-02-14 23:15:00,
2013-02-14 17:17:00,22.9,3.2,29.99,NW,321,9.0,11.0,42,0.00,,CLR,0.01,VWS V14.01,2013-02-14 23:17:00,
2013-02-14 17:22:00,22.7,3.6,29.99,NNW,345,1.0,15.0,43,0.00,,CLR,0.01,VWS V14.01,2013-02-14 23:22:00,
2013-02-14 17:27:00,22.4,1.8,29.99,NNW,332,12.0,17.0,40,0.00,,CLR,0.01,VWS V14.01,2013-02-14 23:27:00,
2013-02-14 17:30:00,22.5,1.8,30.00,NNW,348,11.0,17.0,40,0.00,,,0.01,VWS V15.00,2013-02-14 23:30:00,
2013-02-14 17:32:00,22.4,2.8,30.00,North,4,6.0,12.0,42,0.00,,CLR,0.01,VWS V14.01,2013-02-14 23:32:00,
2013-02-14 17:37:00,22.1,3.0,30.00,NNW,348,5.0,16.0,43,0.00,,CLR,0.01,VWS V14.01,2013-02-14 23:37:00,
2013-02-14 17:42:00,21.9,3.3,30.00,NNW,341,8.0,16.0,44,0.00,,CLR,0.01,VWS V14.01,2013-02-14 23:42:00,
2013-02-14 17:45:00,21.4,2.9,30.01,NW,324,3.0,16.0,44,0.00,,,0.01,VWS V15.00,2013-02-14 23:45:00,
2013-02-14 17:47:00,21.4,2.4,30.01,NNW,334,6.0,10.0,43,0.00,,CLR,0.01,VWS V14.01,2013-02-14 23:47:00,
2013-02-14 17:52:00,21.4,3.4,30.01,NNW,342,5.0,17.0,45,0.00,,CLR,0.01,VWS V14.01,2013-02-14 23:52:00,
2013-02-14 17:57:00,21.1,4.5,30.01,NNW,341,5.0,17.0,48,0.00,,CLR,0.01,VWS V14.01,2013-02-14 23:57:00,
2013-02-14 18:00:00,20.8,3.8,30.02,NNW,333,12.0,17.0,47,0.00,,,0.01,VWS V15.00,2013-02-15 00:00:00,
2013-02-14 18:02:00,20.8,2.3,30.02,NNW,338,13.0,13.0,44,0.00,,CLR,0.01,VWS V14.01,2013-02-15 00:02:00,
2013-02-14 18:07:00,20.8,3.3,30.02,NNW,337,12.0,16.0,46,0.00,,CLR,0.01,VWS V14.01,2013-02-15 00:07:00,
2013-02-14 18:12:00,20.8,1.3,30.02,North,3,1.0,16.0,42,0.00,,CLR,0.01,VWS V14.01,2013-02-15 00:12:00,
2013-02-14 18:15:00,20.8,2.8,30.03,NNW,346,7.0,16.0,45,0.00,,,0.01,VWS V15.00,2013-02-15 00:15:00,
2013-02-14 18:17:00,20.6,3.1,30.03,NNW,343,5.0,10.0,46,0.00,,CLR,0.01,VWS V14.01,2013-02-15 00:17:00,
2013-02-14 18:22:00,20.6,2.6,30.03,NNW,332,9.0,13.0,45,0.00,,CLR,0.01,VWS V14.01,2013-02-15 00:22:00,
2013-02-14 18:27:00,20.5,2.5,30.03,NNW,333,7.0,15.0,45,0.00,,CLR,0.01,VWS V14.01,2013-02-15 00:27:00,
2013-02-14 18:30:00,20.2,2.3,30.04,NNW,337,9.0,15.0,45,0.00,,,0.01,VWS V15.00,2013-02-15 00:30:00,
2013-02-14 18:32:00,20.0,2.6,30.04,NNW,344,6.0,9.0,46,0.00,,CLR,0.01,VWS V14.01,2013-02-15 00:32:00,
2013-02-14 18:37:00,19.7,2.3,30.04,NNW,342,7.0,11.0,46,0.00,,CLR,0.01,VWS V14.01,2013-02-15 00:37:00,
2013-02-14 18:42:00,19.4,2.5,30.04,NNW,345,5.0,11.0,47,0.00,,CLR,0.01,VWS V14.01,2013-02-15 00:42:00,
2013-02-14 18:45:00,19.4,2.0,30.05,NNW,341,7.0,11.0,46,0.00,,,0.01,VWS V15.00,2013-02-15 00:45:00,
2013-02-14 18:48:00,19.2,1.8,30.05,NNW,343,9.0,10.0,46,0.00,,CLR,0.01,VWS V14.01,2013-02-15 00:48:00,
2013-02-14 18:53:00,19.4,2.5,30.05,NNW,338,5.0,10.0,47,0.00,,CLR,0.01,VWS V14.01,2013-02-15 00:53:00,
2013-02-14 18:58:00,18.9,2.5,30.05,NNW,339,10.0,12.0,48,0.00,,CLR,0.01,VWS V14.01,2013-02-15 00:58:00,
2013-02-14 19:00:00,18.8,1.9,30.05,NNW,341,6.0,12.0,47,0.00,,,0.01,VWS V15.00,2013-02-15 01:00:00,
2013-02-14 19:03:00,18.6,2.2,30.05,NNW,345,5.0,9.0,48,0.00,,CLR,0.01,VWS V14.01,2013-02-15 01:03:00,
2013-02-14 19:08:00,18.3,1.9,30.05,NNW,340,6.0,10.0,48,0.00,,CLR,0.01,VWS V14.01,2013-02-15 01:08:00,
2013-02-14 19:13:00,18.1,1.7,30.05,NNW,340,7.0,10.0,48,0.00,,CLR,0.01,VWS V14.01,2013-02-15 01:13:00,
2013-02-14 19:15:00,18.0,2.1,30.05,NNW,338,3.0,10.0,49,0.00,,,0.01,VWS V15.00,2013-02-15 01:15:00,
2013-02-14 19:18:00,17.7,2.2,30.05,NNW,334,6.0,10.0,50,0.00,,CLR,0.01,VWS V14.01,2013-02-15 01:18:00,
2013-02-14 19:23:00,17.3,2.3,30.05,NNW,336,5.0,10.0,51,0.00,,CLR,0.01,VWS V14.01,2013-02-15 01:23:00,
2013-02-14 19:28:00,16.9,1.9,30.05,NNW,333,4.0,10.0,51,0.00,,CLR,0.01,VWS V14.01,2013-02-15 01:28:00,
2013-02-14 19:30:00,16.7,1.7,30.07,NNW,333,5.0,10.0,51,0.00,,,0.01,VWS V15.00,2013-02-15 01:30:00,
2013-02-14 19:33:00,16.5,2.0,30.07,NNW,333,0.0,6.0,52,0.00,,CLR,0.01,VWS V14.01,2013-02-15 01:33:00,
2013-02-14 19:38:00,16.4,1.9,30.07,NNW,333,6.0,8.0,52,0.00,,CLR,0.01,VWS V14.01,2013-02-15 01:38:00,
2013-02-14 19:43:00,15.9,1.8,30.07,NNW,333,5.0,9.0,53,0.00,,CLR,0.01,VWS V14.01,2013-02-15 01:43:00,
2013-02-14 19:45:00,15.7,1.6,30.07,NNW,333,6.0,9.0,53,0.00,,,0.01,VWS V15.00,2013-02-15 01:45:00,
2013-02-14 19:48:00,15.6,1.5,30.07,NNW,333,2.0,7.0,53,0.00,,CLR,0.01,VWS V14.01,2013-02-15 01:48:00,
2013-02-14 19:53:00,15.2,1.5,30.07,NNW,333,7.0,7.0,54,0.00,,CLR,0.01,VWS V14.01,2013-02-15 01:53:00,
2013-02-14 19:58:00,15.1,1.5,30.07,NNW,332,5.0,7.0,54,0.00,,CLR,0.01,VWS V14.01,2013-02-15 01:58:00,
2013-02-14 20:00:00,15.1,1.9,30.07,NNW,331,5.0,10.0,55,0.00,,,0.01,VWS V15.00,2013-02-15 02:00:00,
2013-02-14 20:03:00,15.1,1.1,30.07,NNW,331,4.0,7.0,53,0.00,,CLR,0.01,VWS V14.01,2013-02-15 02:03:00,
2013-02-14 20:08:00,15.1,1.9,30.07,NNW,331,2.0,10.0,55,0.00,,CLR,0.01,VWS V14.01,2013-02-15 02:08:00,
2013-02-14 20:13:00,14.6,1.4,30.07,NNW,331,2.0,10.0,55,0.00,,CLR,0.01,VWS V14.01,2013-02-15 02:13:00,
2013-02-14 20:15:00,14.4,1.6,30.08,NNW,330,5.0,10.0,56,0.00,,,0.01,VWS V15.00,2013-02-15 02:15:00,
2013-02-14 20:18:00,14.1,1.3,30.08,NNW,329,4.0,7.0,56,0.00,,CLR,0.01,VWS V14.01,2013-02-15 02:18:00,
2013-02-14 20:23:00,14.0,1.2,30.08,NNW,329,4.0,7.0,56,0.00,,CLR,0.01,VWS V14.01,2013-02-15 02:23:00,
2013-02-14 20:28:00,13.8,1.4,30.08,NNW,329,5.0,7.0,57,0.00,,CLR,0.01,VWS V14.01,2013-02-15 02:28:00,
2013-02-14 20:30:00,13.6,0.8,30.08,NNW,329,7.0,7.0,56,0.00,,,0.01,VWS V15.00,2013-02-15 02:30:00,
2013-02-14 20:33:00,13.5,1.1,30.08,NNW,327,2.0,7.0,57,0.00,,CLR,0.01,VWS V14.01,2013-02-15 02:33:00,
2013-02-14 20:38:00,12.9,0.9,30.08,NW,317,5.0,10.0,58,0.00,,CLR,0.01,VWS V14.01,2013-02-15 02:38:00,
2013-02-14 20:43:00,12.6,0.6,30.08,NW,316,2.0,10.0,58,0.00,,CLR,0.01,VWS V14.01,2013-02-15 02:43:00,
2013-02-14 20:45:00,12.6,1.0,30.09,NW,315,6.0,10.0,59,0.00,,,0.01,VWS V15.00,2013-02-15 02:45:00,
2013-02-14 20:48:00,12.4,0.8,30.09,NW,315,1.0,7.0,59,0.00,,CLR,0.01,VWS V14.01,2013-02-15 02:48:00,
2013-02-14 20:53:00,12.3,0.7,30.09,NW,315,3.0,9.0,59,0.00,,CLR,0.01,VWS V14.01,2013-02-15 02:53:00,
2013-02-14 20:58:00,12.1,0.2,30.09,NW,313,7.0,9.0,58,0.00,,CLR,0.01,VWS V14.01,2013-02-15 02:58:00,
2013-02-14 21:00:00,12.1,0.2,30.09,NW,312,7.0,9.0,58,0.00,,,0.01,VWS V15.00,2013-02-15 03:00:00,
2013-02-14 21:04:00,11.9,0.0,30.09,NW,307,5.0,10.0,58,0.00,,CLR,0.01,VWS V14.01,2013-02-15 03:04:00,
2013-02-14 21:09:00,11.9,0.3,30.09,WNW,301,7.0,10.0,59,0.00,,CLR,0.01,VWS V14.01,2013-02-15 03:09:00,
2013-02-14 21:14:00,12.1,0.2,30.09,WNW,299,10.0,10.0,58,0.00,,CLR,0.01,VWS V14.01,2013-02-15 03:14:00,
2013-02-14 21:15:00,12.1,0.2,30.10,WNW,302,10.0,12.0,58,0.00,,,0.01,VWS V15.00,2013-02-15 03:15:00,
2013-02-14 21:19:00,12.1,0.5,30.10,NW,309,9.0,11.0,59,0.00,,CLR,0.01,VWS V14.01,2013-02-15 03:19:00,
2013-02-14 21:24:00,12.1,1.2,30.10,NW,308,7.0,11.0,61,0.00,,CLR,0.01,VWS V14.01,2013-02-15 03:24:00,
2013-02-14 21:29:00,11.9,1.4,30.10,NW,312,6.0,11.0,62,0.00,,CLR,0.01,VWS V14.01,2013-02-15 03:29:00,
2013-02-14 21:30:00,11.7,1.2,30.10,NW,304,5.0,11.0,62,0.00,,,0.01,VWS V15.00,2013-02-15 03:30:00,
2013-02-14 21:34:00,11.7,1.2,30.10,NW,305,4.0,9.0,62,0.00,,CLR,0.01,VWS V14.01,2013-02-15 03:34:00,
2013-02-14 21:39:00,11.7,1.2,30.10,NW,307,3.0,10.0,62,0.00,,CLR,0.01,VWS V14.01,2013-02-15 03:39:00,
2013-02-14 21:44:00,11.7,1.2,30.10,NW,308,9.0,10.0,62,0.00,,CLR,0.01,VWS V14.01,2013-02-15 03:44:00,
2013-02-14 21:45:00,11.7,1.2,30.10,NW,310,5.0,10.0,62,0.00,,,0.01,VWS V15.00,2013-02-15 03:45:00,
2013-02-14 21:49:00,11.6,1.1,30.10,NW,312,6.0,9.0,62,0.00,,CLR,0.01,VWS V14.01,2013-02-15 03:49:00,
2013-02-14 21:54:00,11.6,1.1,30.10,NW,311,0.0,9.0,62,0.00,,CLR,0.01,VWS V14.01,2013-02-15 03:54:00,
2013-02-14 21:59:00,11.4,0.9,30.10,NW,311,5.0,9.0,62,0.00,,CLR,0.01,VWS V14.01,2013-02-15 03:59:00,
2013-02-14 22:00:00,11.4,0.9,30.11,NW,310,0.0,9.0,62,0.00,,,0.01,VWS V15.00,2013-02-15 04:00:00,
2013-02-14 22:04:00,11.4,1.3,30.11,NW,310,5.0,7.0,63,0.00,,CLR,0.01,VWS V14.01,2013-02-15 04:04:00,
2013-02-14 22:09:00,11.4,0.9,30.11,NW,310,4.0,7.0,62,0.00,,CLR,0.01,VWS V14.01,2013-02-15 04:09:00,
2013-02-14 22:14:00,11.2,0.7,30.11,NW,309,2.0,7.0,62,0.00,,CLR,0.01,VWS V14.01,2013-02-15 04:14:00,
2013-02-14 22:15:00,11.2,0.7,30.11,NW,309,4.0,7.0,62,0.00,,,0.01,VWS V15.00,2013-02-15 04:15:00,
2013-02-14 22:19:00,11.1,0.6,30.11,NW,309,0.0,5.0,62,0.00,,CLR,0.01,VWS V14.01,2013-02-15 04:19:00,
2013-02-14 22:24:00,11.1,0.6,30.11,NW,309,0.0,5.0,62,0.00,,CLR,0.01,VWS V14.01,2013-02-15 04:24:00,
2013-02-14 22:29:00,10.9,0.8,30.11,NW,309,0.0,5.0,63,0.00,,CLR,0.01,VWS V14.01,2013-02-15 04:29:00,
2013-02-14 22:30:00,10.9,0.4,30.12,NW,309,0.0,5.0,62,0.00,,,0.01,VWS V15.00,2013-02-15 04:30:00,
2013-02-14 22:34:00,10.9,0.4,30.12,NW,309,0.0,4.0,62,0.00,,CLR,0.01,VWS V14.01,2013-02-15 04:34:00,
2013-02-14 22:39:00,10.9,0.4,30.12,NW,308,0.0,4.0,62,0.00,,CLR,0.01,VWS V14.01,2013-02-15 04:39:00,
2013-02-14 22:44:00,11.2,0.7,30.12,NW,308,0.0,4.0,62,0.00,,CLR,0.01,VWS V14.01,2013-02-15 04:44:00,
2013-02-14 22:45:00,11.1,0.3,30.12,NW,308,0.0,4.0,61,0.00,,,0.01,VWS V15.00,2013-02-15 04:45:00,
2013-02-14 22:49:00,10.9,0.1,30.12,NW,308,0.0,0.0,61,0.00,,CLR,0.01,VWS V14.01,2013-02-15 04:49:00,
2013-02-14 22:54:00,10.5,0.1,30.12,NW,308,0.0,0.0,62,0.00,,CLR,0.01,VWS V14.01,2013-02-15 04:54:00,
2013-02-14 22:59:00,10.2,-0.2,30.12,NW,308,0.0,0.0,62,0.00,,CLR,0.01,VWS V14.01,2013-02-15 04:59:00,
2013-02-14 23:00:00,10.2,-0.2,30.12,NW,308,0.0,0.0,62,0.00,,CLR,0.01,VWS V14.01,2013-02-15 05:00:00,
2013-02-14 23:01:00,10.2,-0.2,30.12,NW,308,0.0,0.0,62,0.00,,CLR,0.01,VWS V14.01,2013-02-15 05:01:00,
2013-02-14 23:03:00,10.0,-0.4,30.12,NW,308,0.0,0.0,62,0.00,,CLR,0.01,VWS V14.01,2013-02-15 05:03:00,
2013-02-14 23:09:00,9.7,-0.3,30.12,NW,308,0.0,0.0,63,0.00,,CLR,0.01,VWS V14.01,2013-02-15 05:09:00,
2013-02-14 23:11:00,9.5,-0.2,30.12,NW,308,0.0,0.0,64,0.00,,CLR,0.01,VWS V14.01,2013-02-15 05:11:00,
2013-02-14 23:15:00,9.5,-0.2,30.12,NW,308,0.0,0.0,64,0.00,,,0.01,VWS V15.00,2013-02-15 05:15:00,
2013-02-14 23:16:00,9.5,-0.2,30.12,NW,308,0.0,0.0,64,0.00,,CLR,0.01,VWS V14.01,2013-02-15 05:16:00,
2013-02-14 23:21:00,9.7,-0.3,30.12,NW,307,0.0,0.0,63,0.00,,CLR,0.01,VWS V14.01,2013-02-15 05:21:00,
2013-02-14 23:26:00,9.9,-0.2,30.12,NW,307,0.0,0.0,63,0.00,,CLR,0.01,VWS V14.01,2013-02-15 05:26:00,
2013-02-14 23:30:00,9.3,-0.4,30.12,NW,307,0.0,0.0,64,0.00,,,0.01,VWS V15.00,2013-02-15 05:30:00,
2013-02-14 23:31:00,9.3,-0.7,30.12,NW,307,0.0,0.0,63,0.00,,CLR,0.01,VWS V14.01,2013-02-15 05:31:00,
2013-02-14 23:36:00,9.3,-0.4,30.12,NW,307,0.0,0.0,64,0.00,,BKN100,0.01,VWS V14.01,2013-02-15 05:36:00,
2013-02-14 23:41:00,9.5,-0.2,30.12,NW,307,0.0,0.0,64,0.00,,BKN100,0.01,VWS V14.01,2013-02-15 05:41:00,
2013-02-14 23:45:00,9.0,-0.7,30.12,NW,306,0.0,8.0,64,0.00,,,0.01,VWS V15.00,2013-02-15 05:45:00,
2013-02-14 23:46:00,9.0,-0.7,30.12,NW,306,0.0,8.0,64,0.00,,BKN100,0.01,VWS V14.01,2013-02-15 05:46:00,
2013-02-14 23:51:00,8.6,-1.1,30.12,NW,306,0.0,1.0,64,0.00,,BKN100,0.01,VWS V14.01,2013-02-15 05:51:00,
2013-02-14 23:56:00,8.4,-1.3,30.12,NW,306,0.0,1.0,64,0.00,,BKN100,0.01,VWS V14.01,2013-02-15 05:56:00,